createdAt,value
2022-08-28T00:00:14.077Z,101004.37
2022-08-28T00:02:41.441Z,101004.70
2022-08-28T00:05:09.826Z,101009.92
2022-08-28T00:07:37.067Z,101004.80
2022-08-28T00:10:05.787Z,101005.05
2022-08-28T00:12:33.350Z,101004.90
2022-08-28T00:15:00.416Z,101008.56
2022-08-28T00:17:27.506Z,101008.46
2022-08-28T00:19:54.626Z,101005.59
2022-08-28T00:22:21.769Z,101002.59
2022-08-28T00:24:50.450Z,101007.04
2022-08-28T00:28:00.998Z,101010.66
2022-08-28T00:30:46.371Z,101009.42
2022-08-28T00:33:19.874Z,101014.70
2022-08-28T00:35:47.986Z,101014.52
2022-08-28T00:38:16.402Z,101014.45
2022-08-28T00:40:44.730Z,101010.84
2022-08-28T00:43:25.396Z,101012.90
2022-08-28T00:45:52.753Z,101011.51
2022-08-28T00:48:19.887Z,101018.14
2022-08-28T00:51:07.079Z,101017.35
2022-08-28T00:53:34.404Z,101011.81
2022-08-28T00:56:12.880Z,101014.52
2022-08-28T00:58:43.206Z,101011.95
2022-08-28T01:01:10.947Z,101006.48
2022-08-28T01:03:40.115Z,101010.45
2022-08-28T01:06:10.782Z,101006.34
2022-08-28T01:08:40.853Z,101010.27
2022-08-28T01:11:12.373Z,101008.14
2022-08-28T01:13:41.687Z,101005.02
2022-08-28T01:16:09.084Z,101006.75
2022-08-28T01:18:35.898Z,101009.30
2022-08-28T01:21:20.140Z,101013.30
2022-08-28T01:24:14.678Z,101010.83
2022-08-28T01:26:42.420Z,101011.23
2022-08-28T01:29:11.536Z,101010.74
2022-08-28T01:31:39.425Z,101014.61
2022-08-28T01:34:10.046Z,101016.27
2022-08-28T01:36:37.179Z,101015.20
2022-08-28T01:39:17.470Z,101016.80
2022-08-28T01:41:47.579Z,101014.12
2022-08-28T01:44:17.987Z,101016.89
2022-08-28T01:46:45.699Z,101020.99
2022-08-28T01:49:13.213Z,101022.85
2022-08-28T01:51:41.309Z,101026.63
2022-08-28T01:54:09.829Z,101027.58
2022-08-28T01:56:37.757Z,101027.21
2022-08-28T01:59:08.742Z,101021.98
2022-08-28T02:01:35.621Z,101025.23
2022-08-28T02:04:04.388Z,101024.89
2022-08-28T02:06:31.958Z,101026.98
2022-08-28T02:08:59.478Z,101030.25
2022-08-28T02:11:26.843Z,101033.37
2022-08-28T02:13:54.549Z,101031.77
2022-08-28T02:16:23.816Z,101034.08
2022-08-28T02:18:51.499Z,101034.69
2022-08-28T02:21:19.222Z,101032.90
2022-08-28T02:23:46.583Z,101037.08
2022-08-28T02:26:14.668Z,101035.26
2022-08-28T02:28:42.786Z,101037.42
2022-08-28T02:31:10.256Z,101036.32
2022-08-28T02:33:44.644Z,101034.79
2022-08-28T02:36:13.528Z,101032.60
2022-08-28T02:38:40.792Z,101033.70
2022-08-28T02:41:12.162Z,101035.39
2022-08-28T02:43:39.467Z,101036.28
2022-08-28T02:46:09.871Z,101036.16
2022-08-28T02:48:38.964Z,101031.40
2022-08-28T02:51:13.317Z,101022.33
2022-08-28T02:53:41.428Z,101024.96
2022-08-28T02:56:09.065Z,101025.40
2022-08-28T02:58:36.700Z,101028.56
2022-08-28T03:01:10.801Z,101032.76
2022-08-28T03:03:40.826Z,101031.77
2022-08-28T03:06:09.581Z,101027.59
2022-08-28T03:08:36.987Z,101033.88
2022-08-28T03:11:06.235Z,101039.59
2022-08-28T03:13:33.423Z,101036.41
2022-08-28T03:16:00.608Z,101031.77
2022-08-28T03:18:30.299Z,101034.18
2022-08-28T03:20:57.570Z,101031.50
2022-08-28T03:23:28.025Z,101030.80
2022-08-28T03:25:58.788Z,101030.66
2022-08-28T03:28:27.984Z,101027.89
2022-08-28T03:30:55.305Z,101024.61
2022-08-28T03:33:22.262Z,101025.80
2022-08-28T03:35:49.969Z,101027.91
2022-08-28T03:38:17.783Z,101029.41
2022-08-28T03:40:46.883Z,101032.86
2022-08-28T03:43:16.582Z,101032.61
2022-08-28T03:45:53.830Z,101032.90
2022-08-28T03:48:21.145Z,101036.39
2022-08-28T03:50:48.178Z,101039.31
2022-08-28T03:53:16.049Z,101034.91
2022-08-28T03:55:43.201Z,101034.80
2022-08-28T03:58:10.539Z,101036.42
2022-08-28T04:00:46.601Z,101038.80
2022-08-28T04:03:13.796Z,101036.90
2022-08-28T04:05:42.083Z,101044.14
2022-08-28T04:08:09.872Z,101044.91
2022-08-28T04:10:36.854Z,101046.70
2022-08-28T04:13:04.140Z,101046.52
2022-08-28T04:15:31.195Z,101048.06
2022-08-28T04:17:58.750Z,101048.71
2022-08-28T04:20:26.431Z,101047.60
2022-08-28T04:22:55.055Z,101050.50
2022-08-28T04:25:22.867Z,101054.29
2022-08-28T04:27:51.220Z,101054.25
2022-08-28T04:30:18.751Z,101057.21
2022-08-28T04:32:48.964Z,101058.81
2022-08-28T04:35:16.352Z,101056.84
2022-08-28T04:37:46.203Z,101057.34
2022-08-28T04:40:15.771Z,101058.20
2022-08-28T04:42:44.927Z,101059.88
2022-08-28T04:45:11.800Z,101060.95
2022-08-28T04:47:38.887Z,101062.42
2022-08-28T04:50:06.834Z,101061.73
2022-08-28T04:52:33.912Z,101073.49
2022-08-28T04:55:01.576Z,101071.36
2022-08-28T04:57:30.446Z,101070.48
2022-08-28T05:00:00.355Z,101069.14
2022-08-28T05:02:27.416Z,101068.42
2022-08-28T05:04:54.730Z,101069.39
2022-08-28T05:07:22.112Z,101072.96
2022-08-28T05:09:52.143Z,101071.70
2022-08-28T05:12:19.695Z,101071.07
2022-08-28T05:14:46.772Z,101075.52
2022-08-28T05:17:14.261Z,101071.41
2022-08-28T05:19:41.398Z,101072.25
2022-08-28T05:22:09.872Z,101069.54
2022-08-28T05:24:38.492Z,101072.19
2022-08-28T05:27:05.757Z,101071.83
2022-08-28T05:29:33.307Z,101069.70
2022-08-28T05:32:00.615Z,101072.58
2022-08-28T05:34:28.031Z,101074.34
2022-08-28T05:36:55.571Z,101078.05
2022-08-28T05:39:22.814Z,101079.74
2022-08-28T05:41:52.946Z,101080.05
2022-08-28T05:44:23.187Z,101083.45
2022-08-28T05:46:51.018Z,101084.23
2022-08-28T05:49:19.453Z,101084.40
2022-08-28T05:51:47.690Z,101085.44
2022-08-28T05:54:15.587Z,101091.80
2022-08-28T05:56:45.612Z,101084.46
2022-08-28T05:59:13.549Z,101084.65
2022-08-28T06:01:48.953Z,101089.10
2022-08-28T06:04:24.466Z,101090.67
2022-08-28T06:06:51.864Z,101092.98
2022-08-28T06:09:28.939Z,101096.31
2022-08-28T06:11:59.010Z,101098.23
2022-08-28T06:14:26.723Z,101095.71
2022-08-28T06:16:55.689Z,101099.92
2022-08-28T06:19:24.441Z,101102.16
2022-08-28T06:21:55.341Z,101103.24
2022-08-28T06:24:22.329Z,101105.59
2022-08-28T06:26:49.330Z,101110.29
2022-08-28T06:29:18.384Z,101111.29
2022-08-28T06:31:52.897Z,101114.71
2022-08-28T06:34:19.755Z,101117.60
2022-08-28T06:36:50.583Z,101117.94
2022-08-28T06:39:20.342Z,101121.58
2022-08-28T06:41:47.142Z,101123.64
2022-08-28T06:44:19.981Z,101127.97
2022-08-28T06:46:52.707Z,101126.52
2022-08-28T06:49:19.999Z,101127.34
2022-08-28T06:54:22.756Z,101134.60
2022-08-28T06:56:54.134Z,101136.83
2022-08-28T06:59:21.234Z,101135.92
2022-08-28T07:01:48.468Z,101138.27
2022-08-28T07:04:15.252Z,101139.00
2022-08-28T07:06:46.836Z,101142.67
2022-08-28T07:09:13.912Z,101143.24
2022-08-28T07:11:40.896Z,101143.65
2022-08-28T07:14:08.005Z,101140.09
2022-08-28T07:16:38.323Z,101139.40
2022-08-28T07:19:11.117Z,101141.67
2022-08-28T07:21:41.802Z,101138.86
2022-08-28T07:24:10.800Z,101143.34
2022-08-28T07:26:38.102Z,101147.86
2022-08-28T07:29:10.790Z,101145.21
2022-08-28T07:31:43.042Z,101152.23
2022-08-28T07:34:11.687Z,101151.20
2022-08-28T07:36:39.566Z,101147.20
2022-08-28T07:39:08.487Z,101147.00
2022-08-28T07:41:38.954Z,101150.23
2022-08-28T07:44:25.041Z,101149.00
2022-08-28T07:46:56.847Z,101153.39
2022-08-28T07:49:24.786Z,101151.64
2022-08-28T07:51:54.379Z,101151.21
2022-08-28T07:54:22.752Z,101152.31
2022-08-28T07:56:50.062Z,101152.67
2022-08-28T07:59:19.375Z,101152.69
2022-08-28T08:01:48.385Z,101155.39
2022-08-28T08:04:16.403Z,101150.70
2022-08-28T08:06:44.031Z,101153.81
2022-08-28T08:09:14.452Z,101150.19
2022-08-28T08:11:42.401Z,101152.55
2022-08-28T08:14:09.666Z,101153.48
2022-08-28T08:16:40.136Z,101158.17
2022-08-28T08:19:13.970Z,101153.20
2022-08-28T08:21:43.139Z,101160.01
2022-08-28T08:24:12.973Z,101159.73
2022-08-28T08:27:00.311Z,101155.05
2022-08-28T08:29:29.890Z,101159.48
2022-08-28T08:31:58.370Z,101155.48
2022-08-28T08:34:25.935Z,101156.48
2022-08-28T08:36:52.915Z,101153.12
2022-08-28T08:39:19.938Z,101150.16
2022-08-28T08:41:57.306Z,101149.64
2022-08-28T08:44:36.497Z,101150.14
2022-08-28T08:47:14.122Z,101148.13
2022-08-28T08:50:05.862Z,101144.39
2022-08-28T08:52:38.294Z,101141.62
2022-08-28T08:55:22.266Z,101140.83
2022-08-28T08:57:57.465Z,101141.38
2022-08-28T09:00:25.231Z,101136.24
2022-08-28T09:03:24.141Z,101138.36
2022-08-28T09:05:59.104Z,101147.23
2022-08-28T09:08:27.971Z,101148.04
2022-08-28T09:11:22.049Z,101157.85
2022-08-28T09:14:15.189Z,101153.73
2022-08-28T09:16:47.204Z,101147.18
2022-08-28T09:19:19.185Z,101148.53
2022-08-28T09:21:47.436Z,101151.68
2022-08-28T09:24:28.508Z,101150.29
2022-08-28T09:27:00.706Z,101154.13
2022-08-28T09:29:37.302Z,101151.92
2022-08-28T09:32:29.901Z,101150.90
2022-08-28T09:35:02.928Z,101144.40
2022-08-28T09:37:33.902Z,101145.73
2022-08-28T09:40:22.053Z,101139.91
2022-08-28T09:43:28.805Z,101145.66
2022-08-28T09:46:21.187Z,101146.54
2022-08-28T09:48:52.674Z,101150.79
2022-08-28T09:51:22.530Z,101150.80
2022-08-28T09:53:51.933Z,101151.46
2022-08-28T09:56:28.055Z,101146.33
2022-08-28T09:58:57.815Z,101156.73
2022-08-28T10:01:45.247Z,101148.77
2022-08-28T10:04:33.769Z,101148.08
2022-08-28T10:07:06.509Z,101150.33
2022-08-28T10:10:06.576Z,101146.59
2022-08-28T10:12:50.261Z,101151.64
2022-08-28T10:15:22.113Z,101149.11
2022-08-28T10:18:30.393Z,101158.95
2022-08-28T10:21:35.601Z,101160.17
2022-08-28T10:24:11.936Z,101155.88
2022-08-28T10:27:03.146Z,101156.42
2022-08-28T10:29:38.846Z,101151.05
2022-08-28T10:32:36.753Z,101154.36
2022-08-28T10:35:14.878Z,101150.38
2022-08-28T10:38:16.474Z,101155.77
2022-08-28T10:41:18.549Z,101148.84
2022-08-28T10:43:48.773Z,101146.96
2022-08-28T10:49:15.656Z,101145.91
2022-08-28T10:51:49.769Z,101140.53
2022-08-28T10:54:37.787Z,101141.35
2022-08-28T10:57:27.541Z,101151.71
2022-08-28T10:59:54.388Z,101144.13
2022-08-28T11:02:26.288Z,101146.34
2022-08-28T11:04:58.521Z,101141.55
2022-08-28T11:07:37.233Z,101141.77
2022-08-28T11:10:35.954Z,101143.64
2022-08-28T11:13:06.188Z,101150.32
2022-08-28T11:15:37.138Z,101153.98
2022-08-28T11:18:16.636Z,101148.57
2022-08-28T11:20:59.468Z,101147.23
2022-08-28T11:23:45.263Z,101142.77
2022-08-28T11:26:14.672Z,101142.79
2022-08-28T11:28:45.501Z,101147.39
2022-08-28T11:31:19.133Z,101148.11
2022-08-28T11:33:58.855Z,101146.63
2022-08-28T11:36:29.749Z,101147.80
2022-08-28T11:38:56.331Z,101158.04
2022-08-28T11:41:27.476Z,101153.52
2022-08-28T11:44:12.102Z,101148.98
2022-08-28T11:46:43.977Z,101150.14
2022-08-28T11:49:26.313Z,101149.55
2022-08-28T11:52:23.733Z,101162.64
2022-08-28T11:55:16.182Z,101151.46
2022-08-28T11:58:23.145Z,101146.13
2022-08-28T12:01:01.592Z,101139.27
2022-08-28T12:03:40.351Z,101142.33
2022-08-28T12:06:12.227Z,101143.14
2022-08-28T12:09:01.002Z,101147.32
2022-08-28T12:11:39.510Z,101143.33
2022-08-28T12:14:26.743Z,101145.70
2022-08-28T12:16:59.679Z,101139.94
2022-08-28T12:19:35.503Z,101134.73
2022-08-28T12:22:13.620Z,101134.06
2022-08-28T12:25:00.494Z,101126.36
2022-08-28T12:27:28.124Z,101128.27
2022-08-28T12:29:58.131Z,101119.27
2022-08-28T12:32:44.591Z,101119.95
2022-08-28T12:35:26.376Z,101121.16
2022-08-28T12:37:54.103Z,101128.54
2022-08-28T12:40:20.941Z,101127.25
2022-08-28T12:42:55.027Z,101133.23
2022-08-28T12:45:33.049Z,101126.30
2022-08-28T12:48:02.783Z,101130.38
2022-08-28T12:50:34.281Z,101123.15
2022-08-28T12:53:04.466Z,101112.15
2022-08-28T12:55:32.725Z,101110.52
2022-08-28T12:57:59.535Z,101120.17
2022-08-28T13:00:34.802Z,101129.77
2022-08-28T13:03:03.192Z,101129.91
2022-08-28T13:05:35.748Z,101121.64
2022-08-28T13:08:06.691Z,101117.20
2022-08-28T13:10:49.543Z,101119.54
2022-08-28T13:13:24.808Z,101114.92
2022-08-28T13:16:00.811Z,101111.72
2022-08-28T13:18:39.201Z,101113.39
2022-08-28T13:21:33.267Z,101123.95
2022-08-28T13:24:23.705Z,101122.06
2022-08-28T13:27:00.879Z,101115.38
2022-08-28T13:29:27.922Z,101114.23
2022-08-28T13:32:01.980Z,101111.41
2022-08-28T13:34:32.375Z,101118.10
2022-08-28T13:37:02.360Z,101115.95
2022-08-28T13:39:32.432Z,101111.23
2022-08-28T13:42:05.989Z,101104.52
2022-08-28T13:44:45.757Z,101106.48
2022-08-28T13:47:12.614Z,101102.52
2022-08-28T13:49:39.443Z,101100.79
2022-08-28T13:52:08.124Z,101117.90
2022-08-28T13:54:37.213Z,101113.27
2022-08-28T13:57:07.364Z,101107.50
2022-08-28T13:59:35.015Z,101101.05
2022-08-28T14:02:23.233Z,101100.95
2022-08-28T14:04:50.299Z,101101.77
2022-08-28T14:07:17.382Z,101098.20
2022-08-28T14:09:47.374Z,101095.35
2022-08-28T14:12:14.443Z,101102.02
2022-08-28T14:14:48.658Z,101100.83
2022-08-28T14:17:16.669Z,101100.86
2022-08-28T14:19:43.686Z,101104.58
2022-08-28T14:22:10.858Z,101103.80
2022-08-28T14:24:37.482Z,101107.59
2022-08-28T14:27:04.713Z,101101.80
2022-08-28T14:29:31.560Z,101100.96
2022-08-28T14:32:02.015Z,101105.44
2022-08-28T14:34:29.404Z,101101.84
2022-08-28T14:36:56.429Z,101093.70
2022-08-28T14:39:26.207Z,101101.00
2022-08-28T14:41:53.535Z,101093.55
2022-08-28T14:44:21.908Z,101101.09
2022-08-28T14:46:49.806Z,101094.75
2022-08-28T14:49:17.733Z,101089.53
2022-08-28T14:51:51.564Z,101091.05
2022-08-28T14:54:21.131Z,101090.23
2022-08-28T14:56:48.708Z,101091.23
2022-08-28T14:59:23.854Z,101090.98
2022-08-28T15:01:58.045Z,101090.82
2022-08-28T15:04:26.195Z,101089.77
2022-08-28T15:06:58.469Z,101101.75
2022-08-28T15:09:25.929Z,101101.10
2022-08-28T15:11:53.285Z,101102.28
2022-08-28T15:14:20.046Z,101105.46
2022-08-28T15:16:49.080Z,101104.86
2022-08-28T15:19:17.847Z,101109.76
2022-08-28T15:21:55.899Z,101104.73
2022-08-28T15:24:28.514Z,101100.30
2022-08-28T15:26:56.839Z,101100.26
2022-08-28T15:29:23.782Z,101099.48
2022-08-28T15:31:50.810Z,101096.88
2022-08-28T15:34:23.048Z,101093.56
2022-08-28T15:36:54.845Z,101096.45
2022-08-28T15:39:45.539Z,101106.77
2022-08-28T15:42:12.581Z,101103.08
2022-08-28T15:44:39.926Z,101107.06
2022-08-28T15:47:07.578Z,101104.89
2022-08-28T15:49:43.449Z,101102.37
2022-08-28T15:52:16.189Z,101103.04
2022-08-28T15:54:46.242Z,101111.94
2022-08-28T15:57:13.286Z,101103.70
2022-08-28T15:59:49.840Z,101100.48
2022-08-28T16:02:21.903Z,101098.04
2022-08-28T16:04:49.194Z,101102.56
2022-08-28T16:07:20.359Z,101103.96
2022-08-28T16:09:47.749Z,101118.13
2022-08-28T16:12:14.971Z,101114.52
2022-08-28T16:14:41.630Z,101125.04
2022-08-28T16:17:10.854Z,101127.02
2022-08-28T16:19:39.757Z,101122.16
2022-08-28T16:22:07.017Z,101117.02
2022-08-28T16:24:34.480Z,101115.64
2022-08-28T16:27:01.315Z,101116.17
2022-08-28T16:29:28.065Z,101120.99
2022-08-28T16:31:56.608Z,101127.15
2022-08-28T16:34:25.296Z,101120.58
2022-08-28T16:36:55.612Z,101117.79
2022-08-28T16:39:22.260Z,101119.30
2022-08-28T16:41:50.204Z,101117.05
2022-08-28T16:44:22.006Z,101122.91
2022-08-28T16:46:49.118Z,101124.27
2022-08-28T16:49:15.945Z,101123.58
2022-08-28T16:51:42.412Z,101125.39
2022-08-28T16:54:09.324Z,101121.39
2022-08-28T16:56:36.920Z,101139.33
2022-08-28T16:59:04.567Z,101133.59
2022-08-28T17:01:37.969Z,101132.27
2022-08-28T17:04:07.712Z,101133.92
2022-08-28T17:06:35.451Z,101130.81
2022-08-28T17:09:01.999Z,101127.30
2022-08-28T17:11:28.930Z,101136.93
2022-08-28T17:13:55.858Z,101140.26
2022-08-28T17:16:25.293Z,101136.27
2022-08-28T17:18:52.966Z,101141.80
2022-08-28T17:21:39.870Z,101143.63
2022-08-28T17:24:07.013Z,101142.58
2022-08-28T17:26:36.994Z,101137.89
2022-08-28T17:29:04.798Z,101137.64
2022-08-28T17:31:32.617Z,101140.30
2022-08-28T17:33:59.260Z,101145.96
2022-08-28T17:36:33.108Z,101140.93
2022-08-28T17:39:07.267Z,101147.80
2022-08-28T17:41:35.027Z,101145.27
2022-08-28T17:44:02.504Z,101147.08
2022-08-28T17:46:31.859Z,101144.05
2022-08-28T17:49:02.899Z,101146.15
2022-08-28T17:51:42.527Z,101152.36
2022-08-28T17:54:16.719Z,101150.52
2022-08-28T17:56:43.436Z,101150.98
2022-08-28T17:59:11.641Z,101154.19
2022-08-28T18:01:39.457Z,101151.98
2022-08-28T18:04:06.422Z,101155.61
2022-08-28T18:06:33.713Z,101159.73
2022-08-28T18:09:00.609Z,101157.18
2022-08-28T18:11:28.313Z,101163.81
2022-08-28T18:13:55.495Z,101164.36
2022-08-28T18:16:22.205Z,101168.25
2022-08-28T18:18:48.976Z,101176.02
2022-08-28T18:21:15.628Z,101180.60
2022-08-28T18:23:42.268Z,101181.08
2022-08-28T18:26:12.533Z,101183.44
2022-08-28T18:28:39.311Z,101183.71
2022-08-28T18:31:09.709Z,101190.37
2022-08-28T18:33:37.267Z,101196.05
2022-08-28T18:36:12.811Z,101195.59
2022-08-28T18:38:40.214Z,101197.33
2022-08-28T18:41:10.464Z,101201.54
2022-08-28T18:43:37.371Z,101199.80
2022-08-28T18:46:11.148Z,101196.25
2022-08-28T18:48:38.143Z,101200.10
2022-08-28T18:51:12.587Z,101198.83
2022-08-28T18:53:42.420Z,101198.77
2022-08-28T18:56:12.432Z,101205.98
2022-08-28T18:58:41.528Z,101209.54
2022-08-28T19:01:11.182Z,101211.77
2022-08-28T19:03:37.991Z,101217.30
2022-08-28T19:06:08.267Z,101219.65
2022-08-28T19:08:37.717Z,101224.23
2022-08-28T19:11:12.586Z,101228.67
2022-08-28T19:13:41.075Z,101234.37
2022-08-28T19:16:17.097Z,101233.92
2022-08-28T19:18:44.298Z,101232.63
2022-08-28T19:21:19.597Z,101239.33
2022-08-28T19:23:53.849Z,101244.95
2022-08-28T19:26:23.923Z,101244.38
2022-08-28T19:28:51.484Z,101242.94
2022-08-28T19:31:18.823Z,101242.57
2022-08-28T19:33:46.932Z,101247.11
2022-08-28T19:36:14.744Z,101249.16
2022-08-28T19:38:41.874Z,101253.08
2022-08-28T19:41:10.348Z,101255.84
2022-08-28T19:43:43.272Z,101263.00
2022-08-28T19:46:18.234Z,101265.17
2022-08-28T19:48:50.735Z,101270.40
2022-08-28T19:51:23.339Z,101273.96
2022-08-28T19:53:58.286Z,101271.94
2022-08-28T19:56:28.272Z,101276.45
2022-08-28T19:58:58.966Z,101274.52
2022-08-28T20:01:30.814Z,101282.05
2022-08-28T20:04:00.156Z,101285.80
2022-08-28T20:06:27.915Z,101288.00
2022-08-28T20:08:55.123Z,101290.80
2022-08-28T20:11:25.180Z,101294.19
2022-08-28T20:13:56.679Z,101293.52
2022-08-28T20:16:31.686Z,101296.70
2022-08-28T20:18:58.790Z,101297.16
2022-08-28T20:21:37.382Z,101298.50
2022-08-28T20:24:07.954Z,101304.25
2022-08-28T20:26:35.666Z,101308.77
2022-08-28T20:29:03.490Z,101309.52
2022-08-28T20:31:35.015Z,101307.98
2022-08-28T20:34:02.149Z,101312.54
2022-08-28T20:36:29.724Z,101316.14
2022-08-28T20:38:56.955Z,101318.82
2022-08-28T20:41:24.336Z,101317.71
2022-08-28T20:43:51.438Z,101319.59
2022-08-28T20:46:19.842Z,101317.50
2022-08-28T20:48:47.206Z,101314.27
2022-08-28T20:51:14.127Z,101315.19
2022-08-28T20:53:41.502Z,101314.91
2022-08-28T20:56:11.984Z,101316.99
2022-08-28T20:58:39.506Z,101319.92
2022-08-28T21:01:09.213Z,101323.85
2022-08-28T21:03:36.533Z,101325.41
2022-08-28T21:06:04.185Z,101323.82
2022-08-28T21:08:32.118Z,101326.68
2022-08-28T21:11:00.140Z,101329.09
2022-08-28T21:13:30.616Z,101328.93
2022-08-28T21:15:57.906Z,101330.45
2022-08-28T21:18:24.929Z,101326.84
2022-08-28T21:20:52.333Z,101328.96
2022-08-28T21:23:19.557Z,101326.48
2022-08-28T21:25:46.539Z,101327.62
2022-08-28T21:28:13.641Z,101322.93
2022-08-28T21:30:41.732Z,101319.73
2022-08-28T21:33:09.345Z,101320.52
2022-08-28T21:35:36.733Z,101321.45
2022-08-28T21:38:03.753Z,101321.21
2022-08-28T21:40:31.204Z,101320.67
2022-08-28T21:42:58.116Z,101321.48
2022-08-28T21:45:34.207Z,101322.68
2022-08-28T21:48:01.370Z,101324.41
2022-08-28T21:50:31.582Z,101326.05
2022-08-28T21:52:58.470Z,101325.09
2022-08-28T21:55:25.542Z,101323.73
2022-08-28T21:57:52.518Z,101319.75
2022-08-28T22:00:22.312Z,101320.61
2022-08-28T22:02:49.971Z,101323.20
2022-08-28T22:05:17.253Z,101325.66
2022-08-28T22:07:45.070Z,101328.55
2022-08-28T22:10:12.046Z,101325.89
2022-08-28T22:12:38.979Z,101326.09
2022-08-28T22:15:06.343Z,101324.66
2022-08-28T22:17:33.345Z,101328.70
2022-08-28T22:20:00.249Z,101327.77
2022-08-28T22:22:45.861Z,101327.77
2022-08-28T22:25:13.135Z,101325.96
2022-08-28T22:27:41.157Z,101325.29
2022-08-28T22:30:08.893Z,101328.23
2022-08-28T22:32:36.508Z,101326.21
2022-08-28T22:35:08.334Z,101331.88
2022-08-28T22:37:35.798Z,101333.98
2022-08-28T22:40:03.058Z,101331.73
2022-08-28T22:42:37.180Z,101332.23
2022-08-28T22:45:07.650Z,101336.15
2022-08-28T22:47:36.553Z,101334.66
2022-08-28T22:50:04.688Z,101333.98
2022-08-28T22:52:31.750Z,101341.25
2022-08-28T22:55:01.114Z,101343.83
2022-08-28T22:57:28.962Z,101336.65
2022-08-28T23:00:01.330Z,101338.89
2022-08-28T23:02:28.912Z,101340.92
2022-08-28T23:04:56.150Z,101336.23
2022-08-28T23:07:23.732Z,101336.42
2022-08-28T23:09:50.910Z,101335.83
2022-08-28T23:12:18.299Z,101336.59
2022-08-28T23:14:48.565Z,101338.30
2022-08-28T23:17:17.317Z,101339.13
2022-08-28T23:19:47.743Z,101341.60
2022-08-28T23:22:15.573Z,101344.48
2022-08-28T23:24:42.773Z,101340.88
2022-08-28T23:27:34.621Z,101345.38
2022-08-28T23:29:57.767Z,101342.79
2022-08-28T23:32:24.981Z,101340.98
2022-08-28T23:34:52.064Z,101339.70
2022-08-28T23:37:19.688Z,101336.59
2022-08-28T23:39:47.135Z,101334.25
2022-08-28T23:42:15.511Z,101333.45
2022-08-28T23:44:42.978Z,101331.51
2022-08-28T23:47:12.888Z,101325.33
2022-08-28T23:49:42.803Z,101324.41
2022-08-28T23:52:12.182Z,101320.74
2022-08-28T23:54:39.169Z,101324.55
2022-08-28T23:57:06.394Z,101315.80
2022-08-28T23:59:34.131Z,101312.67
